sensor_id;sensor_type;location;lat;lon;timestamp;P1;durP1;ratioP1;P2;durP2;ratioP2
66487;SDS011;53304;54.550;18.526;2022-07-29T00:01:17;5.50;;;2.30;;
66487;SDS011;53304;54.550;18.526;2022-07-29T00:03:45;4.35;;;2.10;;
66487;SDS011;53304;54.550;18.526;2022-07-29T00:06:10;10.00;;;2.20;;
66487;SDS011;53304;54.550;18.526;2022-07-29T00:08:38;5.35;;;2.03;;
66487;SDS011;53304;54.550;18.526;2022-07-29T00:11:03;4.18;;;2.10;;
66487;SDS011;53304;54.550;18.526;2022-07-29T00:13:31;5.88;;;2.20;;
66487;SDS011;53304;54.550;18.526;2022-07-29T00:15:59;4.90;;;2.17;;
66487;SDS011;53304;54.550;18.526;2022-07-29T00:18:24;6.45;;;2.05;;
66487;SDS011;53304;54.550;18.526;2022-07-29T00:20:52;4.93;;;2.10;;
66487;SDS011;53304;54.550;18.526;2022-07-29T00:23:18;4.70;;;2.10;;
66487;SDS011;53304;54.550;18.526;2022-07-29T00:25:45;4.68;;;2.03;;
66487;SDS011;53304;54.550;18.526;2022-07-29T00:28:13;6.13;;;2.05;;
66487;SDS011;53304;54.550;18.526;2022-07-29T00:30:38;7.30;;;1.90;;
66487;SDS011;53304;54.550;18.526;2022-07-29T00:33:07;5.68;;;2.08;;
66487;SDS011;53304;54.550;18.526;2022-07-29T00:35:32;4.80;;;2.00;;
66487;SDS011;53304;54.550;18.526;2022-07-29T00:38:12;5.50;;;1.98;;
66487;SDS011;53304;54.550;18.526;2022-07-29T00:40:40;5.47;;;2.28;;
66487;SDS011;53304;54.550;18.526;2022-07-29T00:43:09;6.30;;;2.10;;
66487;SDS011;53304;54.550;18.526;2022-07-29T00:45:37;5.82;;;2.25;;
66487;SDS011;53304;54.550;18.526;2022-07-29T00:48:02;6.22;;;1.90;;
66487;SDS011;53304;54.550;18.526;2022-07-29T00:50:29;4.28;;;2.00;;
66487;SDS011;53304;54.550;18.526;2022-07-29T00:53:00;5.50;;;2.10;;
66487;SDS011;53304;54.550;18.526;2022-07-29T00:55:26;5.25;;;2.05;;
66487;SDS011;53304;54.550;18.526;2022-07-29T00:57:54;6.45;;;2.22;;
66487;SDS011;53304;54.550;18.526;2022-07-29T01:00:23;6.30;;;2.22;;
66487;SDS011;53304;54.550;18.526;2022-07-29T01:02:51;5.97;;;2.40;;
66487;SDS011;53304;54.550;18.526;2022-07-29T01:05:20;4.38;;;2.13;;
66487;SDS011;53304;54.550;18.526;2022-07-29T01:07:48;4.40;;;1.90;;
66487;SDS011;53304;54.550;18.526;2022-07-29T01:10:16;6.15;;;2.10;;
66487;SDS011;53304;54.550;18.526;2022-07-29T01:12:46;4.10;;;1.90;;
66487;SDS011;53304;54.550;18.526;2022-07-29T01:15:13;5.15;;;2.25;;
66487;SDS011;53304;54.550;18.526;2022-07-29T01:29:17;6.55;;;2.20;;
66487;SDS011;53304;54.550;18.526;2022-07-29T01:31:48;4.00;;;2.22;;
66487;SDS011;53304;54.550;18.526;2022-07-29T01:34:41;4.38;;;1.90;;
66487;SDS011;53304;54.550;18.526;2022-07-29T01:39:42;4.30;;;2.00;;
66487;SDS011;53304;54.550;18.526;2022-07-29T01:42:16;4.18;;;2.20;;
66487;SDS011;53304;54.550;18.526;2022-07-29T01:48:16;5.38;;;2.13;;
66487;SDS011;53304;54.550;18.526;2022-07-29T01:50:18;4.43;;;1.98;;
66487;SDS011;53304;54.550;18.526;2022-07-29T01:52:56;5.93;;;2.25;;
66487;SDS011;53304;54.550;18.526;2022-07-29T01:55:22;4.65;;;2.13;;
66487;SDS011;53304;54.550;18.526;2022-07-29T01:57:52;5.78;;;2.40;;
66487;SDS011;53304;54.550;18.526;2022-07-29T02:00:21;4.07;;;1.90;;
66487;SDS011;53304;54.550;18.526;2022-07-29T02:02:47;5.88;;;2.22;;
66487;SDS011;53304;54.550;18.526;2022-07-29T02:05:14;9.05;;;2.50;;
66487;SDS011;53304;54.550;18.526;2022-07-29T02:07:41;6.82;;;2.30;;
66487;SDS011;53304;54.550;18.526;2022-07-29T02:10:07;5.75;;;2.40;;
66487;SDS011;53304;54.550;18.526;2022-07-29T02:12:36;3.60;;;2.10;;
66487;SDS011;53304;54.550;18.526;2022-07-29T02:15:03;5.30;;;2.33;;
66487;SDS011;53304;54.550;18.526;2022-07-29T02:17:34;4.22;;;1.90;;
66487;SDS011;53304;54.550;18.526;2022-07-29T02:20:06;13.10;;;2.60;;
66487;SDS011;53304;54.550;18.526;2022-07-29T02:22:33;4.88;;;2.40;;
66487;SDS011;53304;54.550;18.526;2022-07-29T02:25:00;6.40;;;2.28;;
66487;SDS011;53304;54.550;18.526;2022-07-29T02:27:28;6.25;;;2.53;;
66487;SDS011;53304;54.550;18.526;2022-07-29T02:29:57;4.72;;;2.40;;
66487;SDS011;53304;54.550;18.526;2022-07-29T02:32:26;6.20;;;2.28;;
66487;SDS011;53304;54.550;18.526;2022-07-29T02:34:52;7.05;;;2.50;;
66487;SDS011;53304;54.550;18.526;2022-07-29T02:37:17;4.30;;;2.20;;
66487;SDS011;53304;54.550;18.526;2022-07-29T02:39:43;5.95;;;2.60;;
66487;SDS011;53304;54.550;18.526;2022-07-29T02:42:11;5.25;;;2.35;;
66487;SDS011;53304;54.550;18.526;2022-07-29T02:44:39;4.72;;;2.53;;
66487;SDS011;53304;54.550;18.526;2022-07-29T02:47:18;6.30;;;2.65;;
66487;SDS011;53304;54.550;18.526;2022-07-29T02:49:57;4.07;;;2.30;;
66487;SDS011;53304;54.550;18.526;2022-07-29T02:57:44;6.28;;;2.75;;
66487;SDS011;53304;54.550;18.526;2022-07-29T03:00:12;4.95;;;2.60;;
66487;SDS011;53304;54.550;18.526;2022-07-29T03:02:42;4.68;;;2.42;;
66487;SDS011;53304;54.550;18.526;2022-07-29T03:05:10;6.93;;;2.63;;
66487;SDS011;53304;54.550;18.526;2022-07-29T03:07:40;4.78;;;2.40;;
66487;SDS011;53304;54.550;18.526;2022-07-29T03:10:11;6.18;;;2.80;;
66487;SDS011;53304;54.550;18.526;2022-07-29T03:12:38;5.43;;;2.50;;
66487;SDS011;53304;54.550;18.526;2022-07-29T03:15:09;7.22;;;2.80;;
66487;SDS011;53304;54.550;18.526;2022-07-29T03:17:34;5.28;;;2.72;;
66487;SDS011;53304;54.550;18.526;2022-07-29T03:20:01;6.40;;;2.72;;
66487;SDS011;53304;54.550;18.526;2022-07-29T03:22:26;5.65;;;2.70;;
66487;SDS011;53304;54.550;18.526;2022-07-29T03:24:52;4.68;;;2.67;;
66487;SDS011;53304;54.550;18.526;2022-07-29T03:27:20;4.50;;;2.58;;
66487;SDS011;53304;54.550;18.526;2022-07-29T03:29:46;6.38;;;2.97;;
66487;SDS011;53304;54.550;18.526;2022-07-29T03:32:11;6.47;;;2.97;;
66487;SDS011;53304;54.550;18.526;2022-07-29T03:34:41;5.03;;;2.40;;
66487;SDS011;53304;54.550;18.526;2022-07-29T03:37:09;4.07;;;2.40;;
66487;SDS011;53304;54.550;18.526;2022-07-29T03:39:36;5.03;;;2.75;;
66487;SDS011;53304;54.550;18.526;2022-07-29T03:42:11;4.72;;;2.50;;
66487;SDS011;53304;54.550;18.526;2022-07-29T03:44:41;5.35;;;2.80;;
66487;SDS011;53304;54.550;18.526;2022-07-29T03:47:09;4.32;;;2.60;;
66487;SDS011;53304;54.550;18.526;2022-07-29T03:49:38;5.15;;;2.80;;
66487;SDS011;53304;54.550;18.526;2022-07-29T03:52:05;6.47;;;2.88;;
66487;SDS011;53304;54.550;18.526;2022-07-29T03:54:31;6.00;;;3.03;;
66487;SDS011;53304;54.550;18.526;2022-07-29T03:56:56;5.78;;;2.70;;
66487;SDS011;53304;54.550;18.526;2022-07-29T03:59:27;5.10;;;2.95;;
66487;SDS011;53304;54.550;18.526;2022-07-29T04:01:52;5.30;;;2.75;;
66487;SDS011;53304;54.550;18.526;2022-07-29T04:04:18;6.55;;;2.75;;
66487;SDS011;53304;54.550;18.526;2022-07-29T04:06:49;6.00;;;2.95;;
66487;SDS011;53304;54.550;18.526;2022-07-29T04:09:15;5.38;;;2.90;;
66487;SDS011;53304;54.550;18.526;2022-07-29T04:11:40;4.85;;;2.78;;
66487;SDS011;53304;54.550;18.526;2022-07-29T04:14:07;5.95;;;3.00;;
66487;SDS011;53304;54.550;18.526;2022-07-29T04:16:34;5.47;;;2.88;;
66487;SDS011;53304;54.550;18.526;2022-07-29T04:19:00;5.25;;;2.88;;
66487;SDS011;53304;54.550;18.526;2022-07-29T04:21:30;5.70;;;2.83;;
66487;SDS011;53304;54.550;18.526;2022-07-29T04:23:58;5.78;;;2.90;;
66487;SDS011;53304;54.550;18.526;2022-07-29T04:26:24;6.85;;;2.72;;
66487;SDS011;53304;54.550;18.526;2022-07-29T04:28:52;4.85;;;2.50;;
66487;SDS011;53304;54.550;18.526;2022-07-29T04:31:17;4.38;;;2.65;;
66487;SDS011;53304;54.550;18.526;2022-07-29T04:33:42;5.60;;;2.95;;
66487;SDS011;53304;54.550;18.526;2022-07-29T04:36:08;6.43;;;2.90;;
66487;SDS011;53304;54.550;18.526;2022-07-29T04:38:36;7.43;;;2.70;;
66487;SDS011;53304;54.550;18.526;2022-07-29T04:41:04;6.15;;;2.90;;
66487;SDS011;53304;54.550;18.526;2022-07-29T04:43:33;5.60;;;2.80;;
66487;SDS011;53304;54.550;18.526;2022-07-29T04:46:02;5.15;;;2.67;;
66487;SDS011;53304;54.550;18.526;2022-07-29T04:48:28;5.95;;;2.70;;
66487;SDS011;53304;54.550;18.526;2022-07-29T04:50:56;5.90;;;2.88;;
66487;SDS011;53304;54.550;18.526;2022-07-29T04:53:21;6.18;;;2.65;;
66487;SDS011;53304;54.550;18.526;2022-07-29T04:55:47;6.70;;;3.17;;
66487;SDS011;53304;54.550;18.526;2022-07-29T04:58:14;6.13;;;2.72;;
66487;SDS011;53304;54.550;18.526;2022-07-29T05:00:44;5.03;;;2.60;;
66487;SDS011;53304;54.550;18.526;2022-07-29T05:03:10;5.57;;;2.60;;
66487;SDS011;53304;54.550;18.526;2022-07-29T05:05:35;6.75;;;3.03;;
66487;SDS011;53304;54.550;18.526;2022-07-29T05:08:03;5.65;;;3.00;;
66487;SDS011;53304;54.550;18.526;2022-07-29T05:10:31;5.80;;;2.78;;
66487;SDS011;53304;54.550;18.526;2022-07-29T05:13:02;5.03;;;2.55;;
66487;SDS011;53304;54.550;18.526;2022-07-29T05:15:31;9.15;;;2.80;;
66487;SDS011;53304;54.550;18.526;2022-07-29T05:18:00;5.93;;;2.80;;
66487;SDS011;53304;54.550;18.526;2022-07-29T05:20:28;5.65;;;2.88;;
66487;SDS011;53304;54.550;18.526;2022-07-29T05:22:55;4.35;;;2.40;;
66487;SDS011;53304;54.550;18.526;2022-07-29T05:25:21;4.60;;;2.50;;
66487;SDS011;53304;54.550;18.526;2022-07-29T05:27:46;5.88;;;2.30;;
66487;SDS011;53304;54.550;18.526;2022-07-29T05:30:12;6.75;;;2.70;;
66487;SDS011;53304;54.550;18.526;2022-07-29T05:32:37;8.27;;;2.65;;
66487;SDS011;53304;54.550;18.526;2022-07-29T05:35:06;6.55;;;2.80;;
66487;SDS011;53304;54.550;18.526;2022-07-29T05:37:34;6.60;;;2.75;;
66487;SDS011;53304;54.550;18.526;2022-07-29T05:40:02;5.20;;;2.70;;
66487;SDS011;53304;54.550;18.526;2022-07-29T05:42:28;6.63;;;3.00;;
66487;SDS011;53304;54.550;18.526;2022-07-29T05:44:54;6.45;;;2.85;;
66487;SDS011;53304;54.550;18.526;2022-07-29T05:47:24;10.07;;;2.67;;
66487;SDS011;53304;54.550;18.526;2022-07-29T05:49:52;6.25;;;2.83;;
66487;SDS011;53304;54.550;18.526;2022-07-29T05:52:22;8.32;;;2.80;;
66487;SDS011;53304;54.550;18.526;2022-07-29T05:54:48;7.10;;;3.38;;
66487;SDS011;53304;54.550;18.526;2022-07-29T05:57:21;9.50;;;3.30;;
66487;SDS011;53304;54.550;18.526;2022-07-29T05:59:48;14.55;;;4.40;;
66487;SDS011;53304;54.550;18.526;2022-07-29T06:02:16;10.73;;;4.30;;
66487;SDS011;53304;54.550;18.526;2022-07-29T06:04:44;12.27;;;4.72;;
66487;SDS011;53304;54.550;18.526;2022-07-29T06:07:10;11.20;;;4.43;;
66487;SDS011;53304;54.550;18.526;2022-07-29T06:09:36;10.70;;;3.83;;
66487;SDS011;53304;54.550;18.526;2022-07-29T06:12:01;14.50;;;3.85;;
66487;SDS011;53304;54.550;18.526;2022-07-29T06:14:29;12.02;;;4.32;;
66487;SDS011;53304;54.550;18.526;2022-07-29T06:16:55;17.75;;;4.80;;
66487;SDS011;53304;54.550;18.526;2022-07-29T06:19:23;14.90;;;4.13;;
66487;SDS011;53304;54.550;18.526;2022-07-29T06:21:48;12.85;;;3.50;;
66487;SDS011;53304;54.550;18.526;2022-07-29T06:24:14;10.35;;;2.92;;
66487;SDS011;53304;54.550;18.526;2022-07-29T06:26:40;10.57;;;2.90;;
66487;SDS011;53304;54.550;18.526;2022-07-29T06:29:09;7.20;;;2.38;;
66487;SDS011;53304;54.550;18.526;2022-07-29T06:31:38;6.45;;;2.63;;
66487;SDS011;53304;54.550;18.526;2022-07-29T06:34:06;7.13;;;2.28;;
66487;SDS011;53304;54.550;18.526;2022-07-29T06:36:34;9.80;;;2.33;;
66487;SDS011;53304;54.550;18.526;2022-07-29T06:39:00;8.00;;;2.10;;
66487;SDS011;53304;54.550;18.526;2022-07-29T06:41:28;5.85;;;1.75;;
66487;SDS011;53304;54.550;18.526;2022-07-29T06:43:53;6.25;;;1.70;;
66487;SDS011;53304;54.550;18.526;2022-07-29T06:46:19;3.80;;;1.40;;
66487;SDS011;53304;54.550;18.526;2022-07-29T06:48:47;9.63;;;1.50;;
66487;SDS011;53304;54.550;18.526;2022-07-29T06:51:13;6.15;;;1.55;;
66487;SDS011;53304;54.550;18.526;2022-07-29T06:53:41;4.13;;;1.17;;
66487;SDS011;53304;54.550;18.526;2022-07-29T06:56:10;3.97;;;1.45;;
66487;SDS011;53304;54.550;18.526;2022-07-29T06:58:37;3.83;;;1.20;;
66487;SDS011;53304;54.550;18.526;2022-07-29T07:01:03;3.90;;;1.30;;
66487;SDS011;53304;54.550;18.526;2022-07-29T07:03:30;2.72;;;1.25;;
66487;SDS011;53304;54.550;18.526;2022-07-29T07:05:58;4.80;;;1.42;;
66487;SDS011;53304;54.550;18.526;2022-07-29T07:08:26;2.42;;;1.20;;
66487;SDS011;53304;54.550;18.526;2022-07-29T07:10:54;5.03;;;1.35;;
66487;SDS011;53304;54.550;18.526;2022-07-29T07:13:21;2.58;;;1.20;;
66487;SDS011;53304;54.550;18.526;2022-07-29T07:15:51;3.30;;;1.17;;
66487;SDS011;53304;54.550;18.526;2022-07-29T07:18:17;2.60;;;1.13;;
66487;SDS011;53304;54.550;18.526;2022-07-29T07:20:45;3.83;;;1.42;;
66487;SDS011;53304;54.550;18.526;2022-07-29T07:23:12;3.35;;;1.23;;
66487;SDS011;53304;54.550;18.526;2022-07-29T07:25:40;2.63;;;1.15;;
66487;SDS011;53304;54.550;18.526;2022-07-29T07:28:05;4.75;;;1.30;;
66487;SDS011;53304;54.550;18.526;2022-07-29T07:30:31;4.38;;;1.33;;
66487;SDS011;53304;54.550;18.526;2022-07-29T07:32:56;3.38;;;1.42;;
66487;SDS011;53304;54.550;18.526;2022-07-29T07:35:22;3.03;;;1.17;;
66487;SDS011;53304;54.550;18.526;2022-07-29T07:37:47;4.32;;;1.15;;
66487;SDS011;53304;54.550;18.526;2022-07-29T07:40:12;5.15;;;1.13;;
66487;SDS011;53304;54.550;18.526;2022-07-29T07:42:38;3.05;;;1.08;;
66487;SDS011;53304;54.550;18.526;2022-07-29T07:45:08;4.97;;;1.20;;
66487;SDS011;53304;54.550;18.526;2022-07-29T07:47:36;5.97;;;1.55;;
66487;SDS011;53304;54.550;18.526;2022-07-29T07:50:03;2.45;;;1.08;;
66487;SDS011;53304;54.550;18.526;2022-07-29T07:52:32;3.17;;;1.08;;
66487;SDS011;53304;54.550;18.526;2022-07-29T07:54:58;3.75;;;1.08;;
66487;SDS011;53304;54.550;18.526;2022-07-29T07:57:24;5.70;;;1.20;;
66487;SDS011;53304;54.550;18.526;2022-07-29T07:59:50;5.07;;;1.40;;
66487;SDS011;53304;54.550;18.526;2022-07-29T08:02:16;5.35;;;1.65;;
66487;SDS011;53304;54.550;18.526;2022-07-29T08:04:41;9.93;;;1.73;;
66487;SDS011;53304;54.550;18.526;2022-07-29T08:07:07;6.47;;;1.40;;
66487;SDS011;53304;54.550;18.526;2022-07-29T08:09:35;6.72;;;1.20;;
66487;SDS011;53304;54.550;18.526;2022-07-29T08:12:00;4.70;;;1.10;;
66487;SDS011;53304;54.550;18.526;2022-07-29T08:14:30;4.25;;;1.10;;
66487;SDS011;53304;54.550;18.526;2022-07-29T08:16:58;5.47;;;0.90;;
66487;SDS011;53304;54.550;18.526;2022-07-29T08:19:26;1.75;;;0.85;;
66487;SDS011;53304;54.550;18.526;2022-07-29T08:21:52;2.08;;;0.77;;
66487;SDS011;53304;54.550;18.526;2022-07-29T08:24:20;9.70;;;1.17;;
66487;SDS011;53304;54.550;18.526;2022-07-29T08:27:07;3.50;;;0.80;;
66487;SDS011;53304;54.550;18.526;2022-07-29T08:29:35;1.65;;;0.60;;
66487;SDS011;53304;54.550;18.526;2022-07-29T08:32:03;1.08;;;0.60;;
66487;SDS011;53304;54.550;18.526;2022-07-29T08:34:29;2.05;;;0.80;;
66487;SDS011;53304;54.550;18.526;2022-07-29T08:36:55;1.48;;;0.55;;
66487;SDS011;53304;54.550;18.526;2022-07-29T08:39:21;2.05;;;0.80;;
66487;SDS011;53304;54.550;18.526;2022-07-29T08:41:47;2.65;;;0.68;;
66487;SDS011;53304;54.550;18.526;2022-07-29T08:44:12;0.95;;;0.70;;
66487;SDS011;53304;54.550;18.526;2022-07-29T08:46:42;1.95;;;0.60;;
66487;SDS011;53304;54.550;18.526;2022-07-29T08:49:08;1.27;;;0.60;;
66487;SDS011;53304;54.550;18.526;2022-07-29T08:51:34;1.83;;;0.60;;
66487;SDS011;53304;54.550;18.526;2022-07-29T08:54:05;0.80;;;0.50;;
66487;SDS011;53304;54.550;18.526;2022-07-29T08:56:31;1.10;;;0.50;;
66487;SDS011;53304;54.550;18.526;2022-07-29T08:58:57;0.75;;;0.57;;
66487;SDS011;53304;54.550;18.526;2022-07-29T09:01:24;2.33;;;0.52;;
66487;SDS011;53304;54.550;18.526;2022-07-29T09:03:51;0.63;;;0.63;;
66487;SDS011;53304;54.550;18.526;2022-07-29T09:06:20;2.72;;;0.80;;
66487;SDS011;53304;54.550;18.526;2022-07-29T09:08:46;1.20;;;0.70;;
66487;SDS011;53304;54.550;18.526;2022-07-29T09:11:12;2.20;;;0.80;;
66487;SDS011;53304;54.550;18.526;2022-07-29T09:13:41;1.83;;;0.90;;
66487;SDS011;53304;54.550;18.526;2022-07-29T09:16:08;3.85;;;0.95;;
66487;SDS011;53304;54.550;18.526;2022-07-29T09:18:43;1.10;;;0.70;;
66487;SDS011;53304;54.550;18.526;2022-07-29T09:21:12;0.95;;;0.60;;
66487;SDS011;53304;54.550;18.526;2022-07-29T09:24:16;1.27;;;0.60;;
66487;SDS011;53304;54.550;18.526;2022-07-29T09:26:45;0.95;;;0.80;;
66487;SDS011;53304;54.550;18.526;2022-07-29T09:29:16;1.73;;;0.75;;
66487;SDS011;53304;54.550;18.526;2022-07-29T09:31:50;2.05;;;0.70;;
66487;SDS011;53304;54.550;18.526;2022-07-29T09:34:22;0.93;;;0.70;;
66487;SDS011;53304;54.550;18.526;2022-07-29T09:36:53;2.22;;;0.90;;
66487;SDS011;53304;54.550;18.526;2022-07-29T09:42:11;2.13;;;0.70;;
66487;SDS011;53304;54.550;18.526;2022-07-29T09:44:40;1.50;;;0.70;;
66487;SDS011;53304;54.550;18.526;2022-07-29T09:47:08;0.52;;;0.52;;
66487;SDS011;53304;54.550;18.526;2022-07-29T09:49:34;0.85;;;0.60;;
66487;SDS011;53304;54.550;18.526;2022-07-29T09:52:08;1.95;;;0.52;;
66487;SDS011;53304;54.550;18.526;2022-07-29T09:54:34;1.30;;;0.60;;
66487;SDS011;53304;54.550;18.526;2022-07-29T09:57:07;1.23;;;0.60;;
66487;SDS011;53304;54.550;18.526;2022-07-29T09:59:37;1.63;;;0.60;;
66487;SDS011;53304;54.550;18.526;2022-07-29T10:02:12;1.05;;;0.60;;
66487;SDS011;53304;54.550;18.526;2022-07-29T10:04:40;0.98;;;0.70;;
66487;SDS011;53304;54.550;18.526;2022-07-29T10:07:09;2.47;;;0.70;;
66487;SDS011;53304;54.550;18.526;2022-07-29T10:09:36;1.80;;;0.60;;
66487;SDS011;53304;54.550;18.526;2022-07-29T10:12:05;0.90;;;0.60;;
66487;SDS011;53304;54.550;18.526;2022-07-29T10:14:36;1.63;;;0.50;;
66487;SDS011;53304;54.550;18.526;2022-07-29T10:17:04;0.70;;;0.60;;
66487;SDS011;53304;54.550;18.526;2022-07-29T10:19:33;0.98;;;0.52;;
66487;SDS011;53304;54.550;18.526;2022-07-29T10:22:03;0.82;;;0.50;;
66487;SDS011;53304;54.550;18.526;2022-07-29T10:24:36;1.60;;;0.60;;
66487;SDS011;53304;54.550;18.526;2022-07-29T10:27:05;2.78;;;0.60;;
66487;SDS011;53304;54.550;18.526;2022-07-29T10:29:32;0.95;;;0.50;;
66487;SDS011;53304;54.550;18.526;2022-07-29T10:32:07;1.65;;;0.60;;
66487;SDS011;53304;54.550;18.526;2022-07-29T10:43:03;1.70;;;0.85;;
66487;SDS011;53304;54.550;18.526;2022-07-29T10:45:40;2.25;;;0.73;;
66487;SDS011;53304;54.550;18.526;2022-07-29T10:48:05;1.42;;;0.70;;
66487;SDS011;53304;54.550;18.526;2022-07-29T10:51:13;0.93;;;0.65;;
66487;SDS011;53304;54.550;18.526;2022-07-29T10:53:25;0.63;;;0.60;;
66487;SDS011;53304;54.550;18.526;2022-07-29T10:56:27;1.08;;;0.40;;
66487;SDS011;53304;54.550;18.526;2022-07-29T11:01:48;1.90;;;0.47;;
66487;SDS011;53304;54.550;18.526;2022-07-29T11:07:10;1.92;;;0.60;;
66487;SDS011;53304;54.550;18.526;2022-07-29T11:09:36;2.83;;;0.65;;
66487;SDS011;53304;54.550;18.526;2022-07-29T11:12:03;1.50;;;0.63;;
66487;SDS011;53304;54.550;18.526;2022-07-29T11:17:21;1.15;;;0.60;;
66487;SDS011;53304;54.550;18.526;2022-07-29T11:19:49;0.45;;;0.45;;
66487;SDS011;53304;54.550;18.526;2022-07-29T11:22:36;0.63;;;0.47;;
66487;SDS011;53304;54.550;18.526;2022-07-29T11:25:17;0.98;;;0.60;;
66487;SDS011;53304;54.550;18.526;2022-07-29T11:27:44;1.88;;;0.50;;
66487;SDS011;53304;54.550;18.526;2022-07-29T11:30:14;1.90;;;0.55;;
66487;SDS011;53304;54.550;18.526;2022-07-29T11:32:41;1.60;;;0.60;;
66487;SDS011;53304;54.550;18.526;2022-07-29T11:38:34;1.30;;;0.60;;
66487;SDS011;53304;54.550;18.526;2022-07-29T11:43:53;0.88;;;0.50;;
66487;SDS011;53304;54.550;18.526;2022-07-29T11:49:08;1.27;;;0.52;;
66487;SDS011;53304;54.550;18.526;2022-07-29T11:51:35;0.40;;;0.40;;
66487;SDS011;53304;54.550;18.526;2022-07-29T11:54:01;0.88;;;0.60;;
66487;SDS011;53304;54.550;18.526;2022-07-29T11:56:30;1.30;;;0.70;;
66487;SDS011;53304;54.550;18.526;2022-07-29T11:59:05;0.70;;;0.50;;
66487;SDS011;53304;54.550;18.526;2022-07-29T12:01:34;0.93;;;0.57;;
66487;SDS011;53304;54.550;18.526;2022-07-29T12:04:05;2.15;;;0.70;;
66487;SDS011;53304;54.550;18.526;2022-07-29T12:06:32;2.15;;;0.63;;
66487;SDS011;53304;54.550;18.526;2022-07-29T12:08:58;1.02;;;0.60;;
66487;SDS011;53304;54.550;18.526;2022-07-29T12:11:28;1.77;;;0.60;;
66487;SDS011;53304;54.550;18.526;2022-07-29T12:13:53;1.30;;;0.70;;
66487;SDS011;53304;54.550;18.526;2022-07-29T12:16:19;2.95;;;0.70;;
66487;SDS011;53304;54.550;18.526;2022-07-29T12:19:06;6.45;;;1.08;;
66487;SDS011;53304;54.550;18.526;2022-07-29T12:21:43;1.02;;;0.68;;
66487;SDS011;53304;54.550;18.526;2022-07-29T12:24:23;1.60;;;0.70;;
66487;SDS011;53304;54.550;18.526;2022-07-29T12:26:49;3.00;;;0.60;;
66487;SDS011;53304;54.550;18.526;2022-07-29T12:29:18;2.15;;;0.63;;
66487;SDS011;53304;54.550;18.526;2022-07-29T12:31:50;1.00;;;0.70;;
66487;SDS011;53304;54.550;18.526;2022-07-29T12:34:19;3.33;;;0.75;;
66487;SDS011;53304;54.550;18.526;2022-07-29T12:36:45;1.95;;;0.70;;
66487;SDS011;53304;54.550;18.526;2022-07-29T12:39:14;1.38;;;0.60;;
66487;SDS011;53304;54.550;18.526;2022-07-29T12:41:43;1.73;;;0.70;;
66487;SDS011;53304;54.550;18.526;2022-07-29T12:44:11;1.60;;;0.60;;
66487;SDS011;53304;54.550;18.526;2022-07-29T12:46:37;1.73;;;0.70;;
66487;SDS011;53304;54.550;18.526;2022-07-29T12:49:02;1.35;;;0.60;;
66487;SDS011;53304;54.550;18.526;2022-07-29T12:51:32;2.42;;;0.80;;
66487;SDS011;53304;54.550;18.526;2022-07-29T12:54:08;0.65;;;0.57;;
66487;SDS011;53304;54.550;18.526;2022-07-29T12:56:35;1.73;;;0.70;;
66487;SDS011;53304;54.550;18.526;2022-07-29T12:59:14;1.13;;;0.70;;
66487;SDS011;53304;54.550;18.526;2022-07-29T13:01:44;1.30;;;0.47;;
66487;SDS011;53304;54.550;18.526;2022-07-29T13:07:08;0.63;;;0.60;;
66487;SDS011;53304;54.550;18.526;2022-07-29T13:12:11;1.02;;;0.60;;
66487;SDS011;53304;54.550;18.526;2022-07-29T13:14:40;1.73;;;0.70;;
66487;SDS011;53304;54.550;18.526;2022-07-29T13:17:11;2.22;;;0.88;;
66487;SDS011;53304;54.550;18.526;2022-07-29T13:19:38;1.60;;;0.60;;
66487;SDS011;53304;54.550;18.526;2022-07-29T13:22:07;0.80;;;0.57;;
66487;SDS011;53304;54.550;18.526;2022-07-29T13:24:33;0.68;;;0.60;;
66487;SDS011;53304;54.550;18.526;2022-07-29T13:26:59;2.40;;;0.70;;
66487;SDS011;53304;54.550;18.526;2022-07-29T13:29:25;0.88;;;0.50;;
66487;SDS011;53304;54.550;18.526;2022-07-29T13:31:53;1.58;;;0.70;;
66487;SDS011;53304;54.550;18.526;2022-07-29T13:34:18;10.75;;;1.20;;
66487;SDS011;53304;54.550;18.526;2022-07-29T13:36:48;6.05;;;0.95;;
66487;SDS011;53304;54.550;18.526;2022-07-29T13:39:14;6.50;;;0.90;;
66487;SDS011;53304;54.550;18.526;2022-07-29T13:41:39;3.78;;;1.00;;
66487;SDS011;53304;54.550;18.526;2022-07-29T13:44:05;2.40;;;0.73;;
66487;SDS011;53304;54.550;18.526;2022-07-29T13:46:30;1.90;;;0.80;;
66487;SDS011;53304;54.550;18.526;2022-07-29T13:48:58;1.25;;;0.60;;
66487;SDS011;53304;54.550;18.526;2022-07-29T13:51:29;1.60;;;0.70;;
66487;SDS011;53304;54.550;18.526;2022-07-29T13:53:54;2.45;;;0.75;;
66487;SDS011;53304;54.550;18.526;2022-07-29T13:56:22;1.88;;;0.52;;
66487;SDS011;53304;54.550;18.526;2022-07-29T13:58:47;2.70;;;0.90;;
66487;SDS011;53304;54.550;18.526;2022-07-29T14:01:12;1.77;;;0.60;;
66487;SDS011;53304;54.550;18.526;2022-07-29T14:03:38;1.42;;;0.70;;
66487;SDS011;53304;54.550;18.526;2022-07-29T14:06:08;1.67;;;0.90;;
66487;SDS011;53304;54.550;18.526;2022-07-29T14:08:36;1.52;;;0.70;;
66487;SDS011;53304;54.550;18.526;2022-07-29T14:11:01;1.60;;;0.82;;
66487;SDS011;53304;54.550;18.526;2022-07-29T14:13:27;1.98;;;0.73;;
66487;SDS011;53304;54.550;18.526;2022-07-29T14:15:52;2.75;;;0.70;;
66487;SDS011;53304;54.550;18.526;2022-07-29T14:18:20;2.13;;;0.70;;
66487;SDS011;53304;54.550;18.526;2022-07-29T14:20:47;1.48;;;0.60;;
66487;SDS011;53304;54.550;18.526;2022-07-29T14:23:13;1.55;;;0.85;;
66487;SDS011;53304;54.550;18.526;2022-07-29T14:25:38;1.15;;;0.75;;
66487;SDS011;53304;54.550;18.526;2022-07-29T14:28:04;1.08;;;0.60;;
66487;SDS011;53304;54.550;18.526;2022-07-29T14:30:29;2.25;;;0.70;;
66487;SDS011;53304;54.550;18.526;2022-07-29T14:32:54;0.98;;;0.60;;
66487;SDS011;53304;54.550;18.526;2022-07-29T14:35:20;2.00;;;0.70;;
66487;SDS011;53304;54.550;18.526;2022-07-29T14:37:45;1.00;;;0.60;;
66487;SDS011;53304;54.550;18.526;2022-07-29T14:40:15;0.75;;;0.60;;
66487;SDS011;53304;54.550;18.526;2022-07-29T14:42:41;1.05;;;0.60;;
66487;SDS011;53304;54.550;18.526;2022-07-29T14:45:07;1.05;;;0.60;;
66487;SDS011;53304;54.550;18.526;2022-07-29T14:47:33;0.70;;;0.60;;
66487;SDS011;53304;54.550;18.526;2022-07-29T14:50:04;1.67;;;0.70;;
66487;SDS011;53304;54.550;18.526;2022-07-29T14:52:30;0.50;;;0.50;;
66487;SDS011;53304;54.550;18.526;2022-07-29T14:54:55;1.58;;;0.68;;
66487;SDS011;53304;54.550;18.526;2022-07-29T14:57:25;0.60;;;0.60;;
66487;SDS011;53304;54.550;18.526;2022-07-29T14:59:51;1.67;;;0.70;;
66487;SDS011;53304;54.550;18.526;2022-07-29T15:02:18;2.42;;;0.63;;
66487;SDS011;53304;54.550;18.526;2022-07-29T15:04:44;1.17;;;0.60;;
66487;SDS011;53304;54.550;18.526;2022-07-29T15:07:11;1.20;;;0.65;;
66487;SDS011;53304;54.550;18.526;2022-07-29T15:09:36;1.48;;;0.70;;
66487;SDS011;53304;54.550;18.526;2022-07-29T15:12:02;0.65;;;0.65;;
66487;SDS011;53304;54.550;18.526;2022-07-29T15:14:28;1.75;;;0.60;;
66487;SDS011;53304;54.550;18.526;2022-07-29T15:16:57;9.52;;;1.55;;
66487;SDS011;53304;54.550;18.526;2022-07-29T15:19:22;12.43;;;1.40;;
66487;SDS011;53304;54.550;18.526;2022-07-29T15:21:48;3.15;;;0.90;;
66487;SDS011;53304;54.550;18.526;2022-07-29T15:24:16;1.58;;;0.63;;
66487;SDS011;53304;54.550;18.526;2022-07-29T15:26:42;2.47;;;0.90;;
66487;SDS011;53304;54.550;18.526;2022-07-29T15:29:07;2.00;;;0.70;;
66487;SDS011;53304;54.550;18.526;2022-07-29T15:31:32;1.33;;;0.77;;
66487;SDS011;53304;54.550;18.526;2022-07-29T15:33:58;1.48;;;0.60;;
66487;SDS011;53304;54.550;18.526;2022-07-29T15:36:23;4.00;;;0.80;;